Time;durP1;ratioP1;P1;durP2;ratioP2;P2;SDS_P1;SDS_P2;PMS_P1;PMS_P2;Temp;Humidity;BMP_temperature;BMP_pressure;BME280_temperature;BME280_humidity;BME280_pressure;Samples;Min_cycle;Max_cycle;Signal;HPM_P1;HPM_P2
2021/01/17 00:02:28;;;;;;;32.80;14.53;;;;;;;-12.19;74.23;92521.20;1813673;79;21696;-75
2021/01/17 00:04:56;;;;;;;23.77;13.33;;;;;;;-12.36;74.50;92513.77;1756839;78;21232;-74
2021/01/17 00:07:23;;;;;;;42.90;17.97;;;;;;;-12.50;74.79;92521.48;1779651;79;21152;-75
2021/01/17 00:09:51;;;;;;;28.17;13.33;;;;;;;-12.50;75.17;92518.86;1841219;75;21180;-75
2021/01/17 00:12:19;;;;;;;25.13;11.07;;;;;;;-12.44;75.24;92518.30;1781864;80;21330;-75
2021/01/17 00:14:46;;;;;;;22.30;11.23;;;;;;;-12.46;75.41;92523.02;1753420;80;21781;-75
2021/01/17 00:17:14;;;;;;;27.47;12.33;;;;;;;-12.47;75.37;92524.09;1772244;80;21173;-76
2021/01/17 00:19:42;;;;;;;31.50;15.13;;;;;;;-12.50;75.42;92522.02;1768880;80;21145;-74
2021/01/17 00:22:09;;;;;;;39.70;16.63;;;;;;;-12.51;75.26;92524.39;1786975;79;21695;-75
2021/01/17 00:24:37;;;;;;;26.83;12.93;;;;;;;-12.59;75.07;92523.14;1795767;79;21185;-75
2021/01/17 00:27:05;;;;;;;29.33;12.60;;;;;;;-12.68;75.25;92528.70;1807587;77;21336;-74
2021/01/17 00:29:32;;;;;;;26.50;11.57;;;;;;;-12.80;75.48;92538.74;1840259;77;21174;-74
2021/01/17 00:31:59;;;;;;;22.77;10.13;;;;;;;-12.88;75.87;92544.03;1812108;77;21583;-76
2021/01/17 00:34:27;;;;;;;15.00;7.37;;;;;;;-12.88;76.03;92544.56;1826152;77;21632;-76
2021/01/17 00:36:55;;;;;;;22.23;9.87;;;;;;;-12.93;76.21;92545.92;1829926;77;21183;-73
2021/01/17 00:39:22;;;;;;;20.57;10.60;;;;;;;-13.05;76.26;92532.64;1802125;77;21250;-74
2021/01/17 00:41:50;;;;;;;20.43;10.27;;;;;;;-13.12;76.38;92536.08;1837193;78;21178;-75
2021/01/17 00:44:17;;;;;;;20.30;9.67;;;;;;;-13.10;76.56;92540.50;1836955;78;21197;-75
2021/01/17 00:46:45;;;;;;;18.77;8.47;;;;;;;-13.13;76.43;92536.33;1836331;78;21209;-76
2021/01/17 00:49:13;;;;;;;20.97;9.00;;;;;;;-13.19;76.40;92536.12;1837266;78;21558;-74
2021/01/17 00:51:45;;;;;;;19.30;9.57;;;;;;;-13.25;76.45;92542.70;1835615;78;21796;-74
2021/01/17 00:54:13;;;;;;;28.93;11.83;;;;;;;-13.29;76.61;92541.69;1836753;78;21182;-74
2021/01/17 00:56:41;;;;;;;17.10;8.10;;;;;;;-13.29;76.49;92542.21;1837203;78;21155;-74
2021/01/17 00:59:10;;;;;;;18.13;9.27;;;;;;;-13.34;76.27;92539.10;1792922;78;21646;-74
2021/01/17 01:01:43;;;;;;;17.73;8.67;;;;;;;-13.47;76.20;92542.30;1772679;80;21114;-74
2021/01/17 01:04:14;;;;;;;24.07;9.80;;;;;;;-13.57;76.29;92543.14;1792402;79;21530;-74
2021/01/17 01:06:43;;;;;;;19.43;8.20;;;;;;;-13.59;76.29;92539.22;1771359;80;21197;-73
2021/01/17 01:09:13;;;;;;;16.00;7.97;;;;;;;-13.62;76.25;92547.06;1820948;78;21409;-75
2021/01/17 01:11:43;;;;;;;14.93;7.50;;;;;;;-13.66;76.38;92550.48;1827843;78;21517;-73
2021/01/17 01:14:11;;;;;;;13.10;5.80;;;;;;;-13.71;76.58;92554.69;1822151;78;21166;-74
2021/01/17 01:16:39;;;;;;;14.00;6.87;;;;;;;-13.79;76.73;92551.32;1840759;76;21098;-74
2021/01/17 01:19:06;;;;;;;17.83;7.60;;;;;;;-13.81;77.01;92550.01;1816774;78;21196;-74
2021/01/17 01:21:34;;;;;;;12.40;6.57;;;;;;;-13.78;77.27;92550.27;1805661;78;21407;-75
2021/01/17 01:24:02;;;;;;;16.20;7.23;;;;;;;-13.74;76.75;92543.98;1836411;78;21179;-74
2021/01/17 01:26:38;;;;;;;16.93;8.60;;;;;;;-13.77;76.58;92544.51;1844262;77;21167;-74
2021/01/17 01:29:05;;;;;;;26.90;10.80;;;;;;;-13.77;76.67;92537.44;1813634;76;21365;-73
2021/01/17 01:31:34;;;;;;;29.00;12.00;;;;;;;-13.73;76.46;92531.16;1790935;79;21275;-75
2021/01/17 01:34:02;;;;;;;24.80;10.63;;;;;;;-13.74;76.27;92530.91;1807784;78;22208;-74
2021/01/17 01:36:32;;;;;;;30.77;13.80;;;;;;;-13.74;76.20;92528.30;1775983;78;21161;-74
2021/01/17 01:39:01;;;;;;;27.43;13.07;;;;;;;-13.70;76.10;92535.86;1804057;79;21140;-76
2021/01/17 01:41:35;;;;;;;34.10;15.77;;;;;;;-13.67;76.03;92539.25;1854906;77;21196;-75
2021/01/17 01:44:03;;;;;;;34.43;14.93;;;;;;;-13.64;76.01;92537.41;1830923;75;21196;-74
2021/01/17 01:46:31;;;;;;;35.40;15.00;;;;;;;-13.60;76.00;92541.58;1796681;78;21728;-74
2021/01/17 01:49:02;;;;;;;31.77;12.53;;;;;;;-13.62;75.70;92531.37;1810097;78;21617;-74
2021/01/17 01:51:29;;;;;;;26.77;12.03;;;;;;;-13.73;75.41;92533.77;1836653;78;21150;-75
2021/01/17 01:53:58;;;;;;;17.17;8.20;;;;;;;-13.93;75.21;92533.85;1804166;79;21227;-73
2021/01/17 01:56:25;;;;;;;22.53;9.67;;;;;;;-14.13;75.61;92525.03;1829639;77;21169;-74
2021/01/17 01:58:54;;;;;;;15.13;8.77;;;;;;;-14.23;76.16;92531.05;1836725;77;21143;-74
2021/01/17 02:01:22;;;;;;;42.23;18.73;;;;;;;-14.23;76.45;92530.27;1836798;78;21146;-73
2021/01/17 02:03:52;;;;;;;67.37;27.90;;;;;;;-14.24;76.46;92528.71;1836196;78;21182;-74
2021/01/17 02:06:23;;;;;;;67.07;29.50;;;;;;;-14.24;76.48;92529.48;1837189;78;21442;-73
2021/01/17 02:09:14;;;;;;;86.50;35.70;;;;;;;-14.27;76.26;92524.78;1837021;78;21198;-73
2021/01/17 02:12:00;;;;;;;76.37;31.30;;;;;;;-14.32;76.08;92520.89;1837111;78;21178;-73
2021/01/17 02:14:39;;;;;;;78.47;29.37;;;;;;;-14.39;76.03;92509.16;1836687;77;21530;-73
2021/01/17 02:17:11;;;;;;;22.37;10.33;;;;;;;-14.47;75.77;92517.78;1836484;78;21978;-74
2021/01/17 02:20:05;;;;;;;18.57;7.07;;;;;;;-14.54;75.75;92515.20;1827858;78;22138;-73
2021/01/17 02:22:49;;;;;;;12.93;5.27;;;;;;;-14.67;75.69;92514.42;1814480;77;21159;-74
2021/01/17 02:25:16;;;;;;;13.50;6.22;;;;;;;-14.73;75.90;92518.35;1820474;78;21190;-72
2021/01/17 02:27:46;;;;;;;71.27;27.67;;;;;;;-14.78;75.80;92512.34;1837093;78;21643;-72
2021/01/17 02:30:14;;;;;;;97.53;36.40;;;;;;;-14.87;75.70;92510.78;1812079;78;21165;-74
2021/01/17 02:32:53;;;;;;;89.53;33.30;;;;;;;-14.96;75.80;92510.53;1784518;79;21986;-73
2021/01/17 02:35:20;;;;;;;89.73;35.70;;;;;;;-15.00;75.79;92507.41;1822206;78;21166;-73
2021/01/17 02:37:59;;;;;;;104.90;40.90;;;;;;;-15.06;75.83;92510.52;1806390;79;21166;-72
2021/01/17 02:41:10;;;;;;;96.07;36.77;;;;;;;-15.10;75.80;92510.78;1808124;77;21186;-74
2021/01/17 02:43:39;;;;;;;62.60;22.27;;;;;;;-15.12;75.88;92514.16;1814548;78;21696;-74
2021/01/17 02:46:07;;;;;;;29.93;11.10;;;;;;;-15.08;75.82;92512.62;1808490;79;22236;-74
2021/01/17 02:48:34;;;;;;;38.57;13.90;;;;;;;-15.13;75.61;92517.81;1775465;80;21228;-72
2021/01/17 02:51:02;;;;;;;27.93;12.00;;;;;;;-15.19;75.55;92523.56;1755281;81;21196;-72
2021/01/17 02:53:45;;;;;;;17.93;8.13;;;;;;;-15.30;75.05;92517.29;1777273;80;21441;-72
2021/01/17 02:56:19;;;;;;;19.97;6.80;;;;;;;-15.49;75.21;92516.47;1802918;78;21155;-74
2021/01/17 02:58:50;;;;;;;22.00;8.05;;;;;;;-15.58;75.28;92512.78;1828020;77;21801;-73
2021/01/17 03:01:21;;;;;;;15.67;8.30;;;;;;;-15.70;75.21;92518.25;1806783;77;21251;-72
2021/01/17 03:03:49;;;;;;;16.10;7.03;;;;;;;-15.75;75.47;92512.25;1780539;80;21191;-73
2021/01/17 03:06:16;;;;;;;18.63;6.07;;;;;;;-15.72;75.86;92513.83;1731241;80;21299;-72
2021/01/17 03:08:43;;;;;;;12.60;5.47;;;;;;;-15.70;75.86;92513.56;1801003;77;21179;-72
2021/01/17 03:11:11;;;;;;;12.60;6.33;;;;;;;-15.72;75.53;92513.02;1849273;77;21789;-72
2021/01/17 03:13:39;;;;;;;13.77;6.30;;;;;;;-15.83;75.49;92503.61;1852523;77;21690;-72
2021/01/17 03:16:07;;;;;;;29.70;12.03;;;;;;;-15.88;75.89;92504.38;1836514;77;22023;-72
2021/01/17 03:18:35;;;;;;;25.97;9.60;;;;;;;-15.87;75.64;92514.28;1780767;80;21072;-72
2021/01/17 03:21:03;;;;;;;22.83;9.40;;;;;;;-15.90;75.38;92507.78;1814334;78;21171;-72
2021/01/17 03:23:30;;;;;;;12.60;6.57;;;;;;;-15.94;75.07;92511.94;1785691;79;21795;-73
2021/01/17 03:25:59;;;;;;;14.80;7.53;;;;;;;-16.00;75.05;92514.24;1787590;78;22047;-72
2021/01/17 03:28:27;;;;;;;11.47;5.50;;;;;;;-16.06;75.33;92510.81;1829926;77;21284;-75
2021/01/17 03:30:54;;;;;;;10.50;5.50;;;;;;;-16.05;75.88;92513.70;1844194;77;21125;-74
2021/01/17 03:33:22;;;;;;;11.17;5.83;;;;;;;-16.06;75.62;92511.34;1856829;77;21162;-74
2021/01/17 03:35:49;;;;;;;9.90;5.90;;;;;;;-16.11;75.75;92516.02;1815538;77;22133;-73
2021/01/17 03:38:17;;;;;;;18.23;6.87;;;;;;;-16.11;75.92;92513.41;1800055;79;21477;-72
2021/01/17 03:40:44;;;;;;;24.23;10.60;;;;;;;-16.08;76.08;92519.94;1815716;76;21225;-72
2021/01/17 03:43:12;;;;;;;17.53;6.97;;;;;;;-16.03;76.06;92524.64;1861728;76;21158;-72
2021/01/17 03:45:39;;;;;;;64.23;28.40;;;;;;;-15.98;76.12;92526.48;1799896;79;21506;-72
2021/01/17 03:48:08;;;;;;;40.57;17.37;;;;;;;-15.95;76.09;92523.37;1800788;79;22213;-72
2021/01/17 03:50:35;;;;;;;56.70;23.37;;;;;;;-15.93;76.13;92521.31;1800065;79;21418;-72
2021/01/17 03:53:02;;;;;;;75.90;29.13;;;;;;;-15.90;76.08;92528.62;1799724;79;21176;-73
2021/01/17 03:55:30;;;;;;;80.90;31.40;;;;;;;-15.90;75.83;92529.14;1796676;79;21164;-72
2021/01/17 03:57:58;;;;;;;79.27;33.50;;;;;;;-15.94;75.41;92521.05;1779435;80;21224;-74
2021/01/17 04:00:25;;;;;;;65.17;26.80;;;;;;;-16.01;75.37;92520.50;1849476;77;22119;-72
2021/01/17 04:02:52;;;;;;;47.00;18.70;;;;;;;-16.03;75.42;92518.13;1857815;74;21155;-72
2021/01/17 04:05:20;;;;;;;33.47;13.27;;;;;;;-16.03;75.67;92515.53;1858536;77;21166;-72
2021/01/17 04:07:48;;;;;;;40.97;14.80;;;;;;;-16.06;75.58;92519.16;1846535;77;21214;-73
2021/01/17 04:10:15;;;;;;;44.00;17.57;;;;;;;-16.06;75.69;92523.84;1800088;79;21192;-73
2021/01/17 04:12:43;;;;;;;43.87;17.87;;;;;;;-16.10;75.83;92514.19;1799620;79;21365;-72
2021/01/17 04:15:11;;;;;;;74.13;27.43;;;;;;;-16.11;76.38;92514.72;1800124;79;21176;-73
2021/01/17 04:17:39;;;;;;;37.67;15.77;;;;;;;-16.09;76.37;92513.95;1800379;79;21164;-75
2021/01/17 04:20:08;;;;;;;47.23;18.47;;;;;;;-16.08;76.42;92514.73;1802739;79;21197;-76
2021/01/17 04:22:36;;;;;;;43.53;19.43;;;;;;;-16.07;76.53;92522.28;1778703;79;21235;-73
2021/01/17 04:25:06;;;;;;;54.30;21.40;;;;;;;-16.04;76.64;92515.27;1774524;80;21341;-72
2021/01/17 04:27:33;;;;;;;67.23;25.53;;;;;;;-16.03;76.72;92522.56;1775697;80;21193;-74
2021/01/17 04:30:01;;;;;;;62.80;26.40;;;;;;;-15.99;76.77;92511.38;1831682;76;21174;-74
2021/01/17 04:32:29;;;;;;;70.77;30.77;;;;;;;-15.93;76.65;92512.97;1828527;77;22226;-72
2021/01/17 04:34:56;;;;;;;64.17;25.83;;;;;;;-15.92;76.27;92507.23;1809286;79;21107;-73
2021/01/17 04:37:24;;;;;;;74.00;28.93;;;;;;;-15.93;76.26;92506.98;1808972;79;21640;-74
2021/01/17 04:39:52;;;;;;;60.80;24.57;;;;;;;-15.95;76.00;92507.22;1866647;76;21448;-73
2021/01/17 04:44:52;;;;;;;58.87;26.20;;;;;;;-15.89;76.09;92515.84;1839694;77;24032;-73
2021/01/17 04:47:21;;;;;;;65.10;28.30;;;;;;;-15.96;76.15;92516.08;1781519;79;21112;-75
2021/01/17 04:49:53;;;;;;;67.93;26.63;;;;;;;-15.93;76.31;92521.31;1812825;78;21899;-74
2021/01/17 04:52:21;;;;;;;61.87;26.27;;;;;;;-15.89;76.29;92519.75;1823372;77;21175;-74
2021/01/17 04:54:49;;;;;;;64.60;26.63;;;;;;;-15.85;76.17;92520.81;1819157;78;21179;-76
2021/01/17 04:57:20;;;;;;;81.20;35.67;;;;;;;-15.88;75.94;92525.75;1822295;78;21164;-73
2021/01/17 05:00:07;;;;;;;74.83;31.03;;;;;;;-15.90;76.05;92529.14;1773562;80;21162;-73
2021/01/17 05:02:43;;;;;;;39.83;16.97;;;;;;;-15.90;76.00;92526.02;1731586;81;21672;-74
2021/01/17 05:05:17;;;;;;;31.90;13.60;;;;;;;-15.95;76.08;92518.94;1745340;81;21367;-72
2021/01/17 05:08:09;;;;;;;;;;;;;;;-15.99;76.30;92515.28;1832266;77;21150;-74
2021/01/17 05:10:38;;;;;;;20.40;8.57;;;;;;;-16.02;76.39;92522.33;1832036;77;20280;-73
2021/01/17 05:13:17;;;;;;;19.77;7.60;;;;;;;-16.10;76.35;92520.18;1819745;77;21142;-73
2021/01/17 05:15:45;;;;;;;11.90;5.00;;;;;;;-16.11;76.39;92521.22;1852852;77;21167;-73
2021/01/17 05:18:13;;;;;;;8.80;4.87;;;;;;;-16.15;76.13;92522.77;1805138;79;21732;-72
2021/01/17 05:20:41;;;;;;;11.03;5.07;;;;;;;-16.24;76.19;92522.48;1852828;77;21170;-72
2021/01/17 05:23:10;;;;;;;13.70;6.03;;;;;;;-16.23;76.16;92525.86;1821279;77;21155;-73
2021/01/17 05:25:38;;;;;;;17.90;6.00;;;;;;;-16.24;76.17;92523.78;1829453;77;21174;-74
2021/01/17 05:28:06;;;;;;;15.43;6.37;;;;;;;-16.24;76.19;92525.60;1846059;77;22684;-73
2021/01/17 05:30:33;;;;;;;10.27;4.77;;;;;;;-16.31;76.25;92522.44;1805540;78;21470;-74
2021/01/17 05:33:07;;;;;;;10.10;5.10;;;;;;;-16.36;76.45;92527.59;1858743;77;21632;-72
2021/01/17 05:35:36;;;;;;;14.40;7.15;;;;;;;-16.42;76.40;92522.89;1814132;77;21492;-75
2021/01/17 05:38:06;;;;;;;17.17;7.53;;;;;;;-16.41;76.62;92532.27;1838904;76;21154;-72
2021/01/17 05:40:34;;;;;;;10.53;5.47;;;;;;;-16.39;76.58;92525.49;1837638;77;21171;-72
2021/01/17 05:43:02;;;;;;;25.13;10.67;;;;;;;-16.38;76.46;92529.69;1812595;76;21232;-72
2021/01/17 05:45:30;;;;;;;63.13;24.43;;;;;;;-16.38;76.17;92527.08;1806459;79;21187;-72
2021/01/17 05:48:00;;;;;;;70.20;29.77;;;;;;;-16.38;76.17;92529.69;1755796;80;21169;-73
2021/01/17 05:50:32;;;;;;;84.37;34.80;;;;;;;-16.39;76.28;92532.00;1777662;80;21195;-72
2021/01/17 05:53:04;;;;;;;83.43;35.20;;;;;;;-16.39;76.19;92535.91;1793415;79;21433;-72
2021/01/17 05:55:41;;;;;;;69.57;28.33;;;;;;;-16.42;76.08;92537.21;1822368;77;21153;-73
2021/01/17 05:58:30;;;;;;;78.40;31.43;;;;;;;-16.44;76.12;92534.84;1815359;76;21095;-73
2021/01/17 06:00:59;;;;;;;87.07;33.80;;;;;;;-16.45;76.17;92542.39;1822240;78;21222;-73
2021/01/17 06:03:32;;;;;;;85.60;35.27;;;;;;;-16.43;76.34;92552.05;1792667;80;21090;-73
2021/01/17 06:06:05;;;;;;;81.73;30.10;;;;;;;-16.37;76.21;92555.45;1824287;78;21363;-73
2021/01/17 06:08:34;;;;;;;92.33;35.10;;;;;;;-16.35;76.16;92558.60;1758553;79;21231;-74
2021/01/17 06:11:11;;;;;;;78.97;29.03;;;;;;;-16.30;76.15;92560.45;1796356;78;21381;-73
2021/01/17 06:13:41;;;;;;;48.30;19.07;;;;;;;-16.27;76.10;92562.55;1812813;78;21162;-73
2021/01/17 06:16:32;;;;;;;27.67;12.07;;;;;;;-16.23;76.42;92562.31;1829266;77;21321;-72
2021/01/17 06:19:02;;;;;;;97.53;37.83;;;;;;;-16.14;76.49;92567.30;1828619;75;22272;-74
2021/01/17 06:21:30;;;;;;;132.30;50.97;;;;;;;-16.09;75.95;92571.25;1843092;77;21115;-73
2021/01/17 06:24:04;;;;;;;111.20;44.03;;;;;;;-16.06;76.07;92571.23;1822975;75;21090;-73
2021/01/17 06:26:33;;;;;;;97.97;37.17;;;;;;;-16.04;76.02;92573.87;1857401;76;21104;-73
2021/01/17 06:29:03;;;;;;;85.87;34.10;;;;;;;-15.99;76.05;92581.70;1818589;78;21636;-74
2021/01/17 06:31:31;;;;;;;99.90;39.23;;;;;;;-15.98;76.16;92589.80;1812204;77;22823;-74
2021/01/17 06:34:05;;;;;;;161.27;65.00;;;;;;;-15.97;76.15;92592.66;1848225;77;21145;-75
2021/01/17 06:36:33;;;;;;;198.72;68.60;;;;;;;-15.93;76.12;92590.34;1815255;79;21115;-76
2021/01/17 06:39:01;;;;;;;63.23;23.50;;;;;;;-15.87;75.99;92584.61;1845801;77;21105;-75
2021/01/17 06:41:40;;;;;;;83.17;32.50;;;;;;;-15.82;76.06;92588.56;1827731;76;21165;-75
2021/01/17 06:44:12;;;;;;;110.87;41.50;;;;;;;-15.75;76.16;92589.12;1784439;79;21353;-74
2021/01/17 06:46:45;;;;;;;108.40;42.10;;;;;;;-15.69;76.00;92594.08;1750660;81;21138;-74
2021/01/17 06:49:28;;;;;;;88.93;34.53;;;;;;;-15.63;75.87;92595.39;1730333;81;21136;-75
2021/01/17 06:51:56;;;;;;;115.47;44.43;;;;;;;-15.58;75.92;92600.61;1763460;81;21382;-76
2021/01/17 06:54:33;;;;;;;92.73;39.47;;;;;;;-15.55;75.72;92599.59;1764092;81;21406;-76
2021/01/17 06:57:01;;;;;;;104.33;42.00;;;;;;;-15.54;75.72;92604.28;1763438;80;21626;-76
2021/01/17 06:59:42;;;;;;;95.97;41.40;;;;;;;-15.52;75.62;92602.99;1763367;81;21461;-75
2021/01/17 07:02:27;;;;;;;82.03;34.07;;;;;;;-15.49;75.74;92601.19;1763419;80;21938;-73
2021/01/17 07:05:31;;;;;;;81.37;30.87;;;;;;;-15.43;75.74;92605.88;1763521;81;21113;-75
2021/01/17 07:08:47;;;;;;;80.13;33.23;;;;;;;-15.40;75.69;92604.07;1729171;81;21125;-74
2021/01/17 07:11:23;;;;;;;88.80;37.47;;;;;;;-15.33;75.75;92600.71;1762581;81;22216;-73
2021/01/17 07:13:50;;;;;;;88.83;34.50;;;;;;;-15.27;75.58;92598.89;1739279;81;21117;-74
2021/01/17 07:16:31;;;;;;;80.70;31.13;;;;;;;-15.20;75.79;92598.91;1745257;80;21422;-76
2021/01/17 07:19:05;;;;;;;95.53;39.30;;;;;;;-15.11;75.78;92590.60;1772830;80;21535;-76
2021/01/17 07:21:35;;;;;;;75.17;32.23;;;;;;;-15.04;75.65;92595.02;1747180;80;21175;-76
2021/01/17 07:24:05;;;;;;;81.83;34.00;;;;;;;-14.97;75.42;92597.67;1826759;76;21188;-74
2021/01/17 07:27:02;;;;;;;73.40;29.53;;;;;;;-14.90;75.35;92595.32;1857293;75;21121;-75
2021/01/17 07:29:30;;;;;;;81.43;31.40;;;;;;;-14.83;75.11;92594.55;1856207;76;21129;-77
2021/01/17 07:31:58;;;;;;;84.07;32.57;;;;;;;-14.75;75.03;92597.42;1793964;78;21082;-75
2021/01/17 07:34:30;;;;;;;88.33;38.07;;;;;;;-14.70;74.89;92598.75;1786053;78;21173;-75
2021/01/17 07:37:00;;;;;;;115.53;42.57;;;;;;;-14.59;75.08;92596.12;1834254;78;21388;-74
2021/01/17 07:39:27;;;;;;;124.53;47.10;;;;;;;-14.46;75.15;92595.58;1834167;78;21125;-74
2021/01/17 07:41:55;;;;;;;109.57;40.57;;;;;;;-14.30;74.93;92602.88;1834337;78;21557;-74
2021/01/17 07:44:23;;;;;;;81.00;31.20;;;;;;;-14.21;74.49;92600.02;1833568;78;21066;-74
2021/01/17 07:46:51;;;;;;;82.73;33.63;;;;;;;-14.14;74.32;92605.73;1786553;78;21085;-75
2021/01/17 07:49:21;;;;;;;85.93;35.13;;;;;;;-14.08;73.80;92611.75;1812852;78;21919;-74
2021/01/17 07:51:48;;;;;;;78.13;33.87;;;;;;;-14.05;73.68;92604.17;1832940;78;21098;-77
2021/01/17 07:54:24;;;;;;;73.47;32.20;;;;;;;-14.02;73.65;92602.34;1832398;77;21350;-75
2021/01/17 07:56:51;;;;;;;89.40;38.40;;;;;;;-13.98;73.79;92605.99;1832678;78;21432;-76
2021/01/17 07:59:25;;;;;;;92.87;38.17;;;;;;;-13.87;74.12;92604.67;1833051;78;21101;-75
2021/01/17 08:01:54;;;;;;;99.73;41.57;;;;;;;-13.77;74.11;92603.32;1834106;78;22295;-75
2021/01/17 08:04:22;;;;;;;79.07;34.60;;;;;;;-13.67;74.03;92605.91;1833739;78;21117;-75
2021/01/17 08:06:49;;;;;;;97.73;40.93;;;;;;;-13.56;74.06;92611.91;1800544;78;21217;-76
2021/01/17 08:09:42;;;;;;;89.97;40.27;;;;;;;-13.49;73.81;92604.03;1845963;76;21625;-76
2021/01/17 08:12:10;;;;;;;87.67;38.63;;;;;;;-13.39;73.53;92607.65;1806189;77;21102;-75
2021/01/17 08:14:41;;;;;;;91.00;40.10;;;;;;;-13.31;73.24;92609.70;1849075;74;22248;-74
2021/01/17 08:17:16;;;;;;;77.70;34.83;;;;;;;-13.26;73.13;92611.79;1863200;76;21127;-75
2021/01/17 08:20:00;;;;;;;86.03;36.97;;;;;;;-13.17;73.19;92613.28;1854061;77;21100;-75
2021/01/17 08:22:31;;;;;;;82.90;36.33;;;;;;;-13.11;73.06;92610.91;1808111;77;21116;-76
2021/01/17 08:25:04;;;;;;;72.03;32.27;;;;;;;-13.03;72.88;92614.27;1913911;74;21089;-74
2021/01/17 08:27:36;;;;;;;66.87;30.80;;;;;;;-12.98;72.43;92617.38;1875608;74;21333;-74
2021/01/17 08:30:18;;;;;;;64.67;28.70;;;;;;;-12.93;72.50;92611.36;1835841;77;21205;-75
2021/01/17 08:32:49;;;;;;;68.30;31.67;;;;;;;-12.83;72.61;92609.97;1804380;78;21201;-74
2021/01/17 08:35:26;;;;;;;60.17;26.93;;;;;;;-12.71;72.24;92613.06;1810348;78;21170;-75
2021/01/17 08:38:18;;;;;;;89.57;39.97;;;;;;;-12.61;72.43;92619.52;1842197;74;21175;-75
2021/01/17 08:40:51;;;;;;;77.93;33.63;;;;;;;-12.46;72.22;92610.00;1910016;74;21434;-76
2021/01/17 08:43:20;;;;;;;99.77;44.27;;;;;;;-12.29;72.02;92613.03;1854918;77;21581;-77
2021/01/17 08:45:48;;;;;;;104.43;45.70;;;;;;;-12.15;71.94;92615.78;1811673;77;21459;-77
2021/01/17 08:48:20;;;;;;;111.70;47.77;;;;;;;-12.02;71.67;92625.12;1889584;74;21508;-76
2021/01/17 08:50:57;;;;;;;99.37;43.63;;;;;;;-11.86;71.46;92617.89;1893101;74;21068;-76
2021/01/17 08:53:32;;;;;;;100.40;41.97;;;;;;;-11.72;71.18;92622.48;1856279;74;21353;-77
2021/01/17 08:56:19;;;;;;;88.53;40.97;;;;;;;-11.57;71.30;92618.39;1907212;74;21174;-76
2021/01/17 08:58:53;;;;;;;93.70;41.90;;;;;;;-11.41;71.05;92619.78;1865522;76;21150;-77
2021/01/17 09:01:22;;;;;;;105.17;45.93;;;;;;;-11.19;70.68;92618.50;1867800;76;21179;-76
2021/01/17 09:03:52;;;;;;;105.10;48.73;;;;;;;-10.88;70.36;92617.06;1904312;74;21155;-78
2021/01/17 09:06:23;;;;;;;82.47;38.10;;;;;;;-10.39;70.89;92617.19;1881483;74;21983;-78
2021/01/17 09:09:00;;;;;;;73.37;33.07;;;;;;;-9.85;69.93;92621.61;1866697;76;21191;-74
2021/01/17 09:11:36;;;;;;;82.57;37.47;;;;;;;-9.49;68.05;92618.36;1879551;74;21164;-76
2021/01/17 09:14:19;;;;;;;80.20;38.57;;;;;;;-9.29;67.81;92616.66;1907846;74;21175;-77
2021/01/17 09:16:51;;;;;;;93.57;43.67;;;;;;;-9.10;67.31;92621.84;1866394;76;21160;-75
2021/01/17 09:19:22;;;;;;;69.13;33.73;;;;;;;-8.88;67.25;92617.98;1829419;78;21794;-75
2021/01/17 09:21:51;;;;;;;77.63;38.73;;;;;;;-8.63;66.97;92623.28;1832911;76;21148;-77
2021/01/17 09:24:22;;;;;;;114.33;53.30;;;;;;;-8.49;66.13;92619.85;1859829;76;21087;-75
2021/01/17 09:26:55;;;;;;;79.67;39.47;;;;;;;-8.44;65.99;92615.23;1875617;74;21104;-75
2021/01/17 09:29:33;;;;;;;74.93;35.30;;;;;;;-8.38;65.58;92616.70;1868847;75;21108;-75
2021/01/17 09:32:09;;;;;;;70.73;34.27;;;;;;;-8.35;65.60;92608.67;1857725;74;21353;-76
2021/01/17 09:34:40;;;;;;;64.07;32.67;;;;;;;-8.25;65.72;92607.14;1914826;74;21146;-76
2021/01/17 09:37:12;;;;;;;78.50;36.63;;;;;;;-8.13;65.76;92604.75;1883126;74;21538;-75
2021/01/17 09:39:47;;;;;;;81.43;41.07;;;;;;;-8.00;65.51;92606.33;1873739;76;21104;-77
2021/01/17 09:42:15;;;;;;;;;;;;;;;-7.89;65.22;92601.83;1862768;76;21814;-74
2021/01/17 09:44:45;;;;;;;54.83;28.13;;;;;;;-7.70;65.49;92599.00;1854459;75;21314;-75
2021/01/17 09:47:15;;;;;;;60.67;31.10;;;;;;;-7.45;65.58;92602.07;1881516;75;21106;-76
2021/01/17 09:49:43;;;;;;;51.03;26.07;;;;;;;-7.26;64.58;92589.96;1815037;78;21127;-75
2021/01/17 09:52:15;;;;;;;66.43;35.93;;;;;;;-7.15;64.15;92590.70;1841546;77;21338;-76
2021/01/17 09:54:45;;;;;;;58.57;27.97;;;;;;;-7.02;63.95;92579.81;1836943;77;21110;-76
2021/01/17 09:57:19;;;;;;;51.47;27.20;;;;;;;-6.80;63.76;92587.42;1831550;75;21432;-80
2021/01/17 09:59:49;;;;;;;73.53;38.63;;;;;;;-6.62;63.49;92592.44;1901933;74;21196;-76
2021/01/17 10:02:20;;;;;;;81.40;41.93;;;;;;;-6.46;62.82;92591.45;1876837;76;21145;-75
2021/01/17 10:04:48;;;;;;;74.73;39.47;;;;;;;-6.31;62.45;92583.61;1876295;76;21172;-75
2021/01/17 10:07:20;;;;;;;70.20;37.60;;;;;;;-6.20;61.93;92584.86;1875024;76;21157;-78
2021/01/17 10:09:50;;;;;;;56.53;30.63;;;;;;;-6.13;61.35;92585.69;1876034;76;21196;-77
2021/01/17 10:12:26;;;;;;;55.67;25.60;;;;;;;-6.13;61.10;92590.47;1875019;76;21196;-78
2021/01/17 10:14:55;;;;;;;32.50;17.93;;;;;;;-6.12;60.88;92585.40;1886437;74;21180;-76
2021/01/17 10:17:23;;;;;;;37.23;19.83;;;;;;;-5.99;59.94;92586.32;1910553;74;21182;-76
2021/01/17 10:19:50;;;;;;;48.33;25.33;;;;;;;-5.89;59.40;92581.23;1851227;77;21160;-78
2021/01/17 10:22:18;;;;;;;37.60;18.80;;;;;;;-5.80;58.73;92583.31;1841600;77;22518;-77
2021/01/17 10:24:45;;;;;;;34.90;17.57;;;;;;;-5.64;59.41;92584.41;1842141;77;21161;-76
2021/01/17 10:27:16;;;;;;;33.20;16.80;;;;;;;-5.50;58.80;92579.45;1837531;77;21146;-77
2021/01/17 10:29:44;;;;;;;40.33;20.47;;;;;;;-5.46;58.13;92582.47;1831004;77;21177;-77
2021/01/17 10:32:14;;;;;;;27.43;13.37;;;;;;;-5.50;57.81;92580.78;1815845;78;21652;-77
2021/01/17 10:34:44;;;;;;;27.93;14.80;;;;;;;-5.54;58.41;92571.91;1877099;76;22210;-76
2021/01/17 10:37:15;;;;;;;24.20;13.30;;;;;;;-5.43;58.44;92575.77;1879839;75;21167;-77
2021/01/17 10:39:45;;;;;;;20.90;11.13;;;;;;;-5.24;58.65;92576.73;1838889;76;21451;-76
2021/01/17 10:42:24;;;;;;;19.20;10.73;;;;;;;-5.06;57.48;92576.91;1839965;77;21170;-77
2021/01/17 10:45:04;;;;;;;19.60;10.87;;;;;;;-4.99;57.10;92570.56;1863073;76;21477;-77
2021/01/17 10:48:00;;;;;;;19.77;11.47;;;;;;;-4.89;57.64;92564.91;1847556;77;21157;-77
2021/01/17 10:50:28;;;;;;;15.93;8.50;;;;;;;-4.60;57.09;92569.19;1839003;77;21173;-76
2021/01/17 10:53:13;;;;;;;22.93;11.80;;;;;;;-4.44;56.16;92562.22;1833593;78;21177;-76
2021/01/17 10:55:52;;;;;;;18.57;9.55;;;;;;;-4.49;56.46;92567.17;1825250;78;21193;-75
2021/01/17 10:58:24;;;;;;;20.50;10.00;;;;;;;-4.57;55.30;92559.27;1864426;76;21203;-76
2021/01/17 11:01:00;;;;;;;22.27;12.57;;;;;;;-4.74;55.48;92558.80;1882510;75;22670;-76
2021/01/17 11:03:33;;;;;;;22.17;11.33;;;;;;;-4.90;56.28;92563.88;1859657;77;21191;-77
2021/01/17 11:06:12;;;;;;;16.33;9.00;;;;;;;-4.84;55.76;92560.52;1792995;77;21197;-77
2021/01/17 11:08:53;;;;;;;16.07;8.53;;;;;;;-4.74;56.38;92564.91;1805083;76;21197;-78
2021/01/17 11:11:33;;;;;;;16.37;8.70;;;;;;;-4.62;54.88;92560.23;1859740;76;21476;-78
2021/01/17 11:14:05;;;;;;;14.40;7.93;;;;;;;-4.58;56.20;92561.70;1851980;76;21159;-78
2021/01/17 11:16:52;;;;;;;17.87;9.33;;;;;;;-4.44;56.60;92566.20;1862411;76;21496;-78
2021/01/17 11:19:34;;;;;;;15.87;8.90;;;;;;;-4.23;56.76;92553.72;1856467;77;21440;-78
2021/01/17 11:22:02;;;;;;;17.50;10.10;;;;;;;-4.04;55.59;92549.28;1765393;80;21204;-78
2021/01/17 11:24:36;;;;;;;11.40;7.27;;;;;;;-3.88;55.59;92550.78;1816012;78;21156;-79
2021/01/17 11:27:15;;;;;;;18.67;10.15;;;;;;;-3.76;55.98;92544.73;1804477;78;21341;-80
2021/01/17 11:29:44;;;;;;;12.50;7.67;;;;;;;-3.61;54.54;92548.66;1830698;78;21172;-81
2021/01/17 11:32:12;;;;;;;13.63;7.20;;;;;;;-3.52;54.75;92546.16;1839657;77;21305;-79
2021/01/17 11:34:41;;;;;;;13.17;6.93;;;;;;;-3.44;54.14;92536.54;1845056;77;21156;-79
2021/01/17 11:37:10;;;;;;;13.60;8.27;;;;;;;-3.45;53.68;92542.41;1773086;80;21151;-80
2021/01/17 11:39:39;;;;;;;13.80;8.43;;;;;;;-3.40;54.02;92540.65;1749863;80;21229;-79